Venango Regional Airport
KFKL : now visible

Airfield :











YOU CAN JOIN US ON...

 
LOGIN :

Register | Disclaimer

   EN    FR    IT 

 









Legend :    VFR   Marginal VFR   IFR   Intensive IFR   Very Intensive IFR
Visi :
Ceiling :
>= 8 km
>= 3000ft
5 to 8 km
1000 to 3000 ft
1500m to 5 km
500 to 1000 ft
800 to 1500m
200 to 500 ft
< 800m
< 200 ft
Symbols :   Thunderstorms  Fog  Heavy snow  Heavy precipitations  Wind > 20 kt







- Airport Elevation : 1540 ft


KFKL - Venango Regional

CURRENT METAR :
  • 201956Z AUTO 15004KT 9SM CLR 25/13 A3021 RMK AO2 SLP226 T02500133

EXPIRED METARs :
  • 201856Z AUTO 00000KT 9SM CLR 25/12 A3022 RMK AO2 SLP229 T02500117
  • 201756Z AUTO VRB03KT 10SM CLR 24/13 A3023 RMK AO2 SLP232 T02440128 10244 20100 58014

TAF KFKL
Valid from the 20 at 18:00 until the 21 at 18:00 UTC


201720Z 2018/2118 19005KT P6SM FEW050
FM210900 16003KT P6SM SCT080
FM211300 17004KT P6SM BKN025
No reported NOTAMs for that airfield.



MET'MAP, your aeronautical weather chart ! - Copyright ORBIFLY December 2007 - Disclaimer

ORBIFLY MET'MAP TEAM :

Programming & Development : Alexandra Zaïnal
Concept & Development : Baudouin d'Aumeries
Co-Development & Prog : Marc-Olivier Méhu
Technical & hardware support : Manuel Goepfert

Contact : metmap@orbifly.com




SOURCES & CREDITS :

   NOAA       Earth
Advisory